Time;durP1;ratioP1;P1;durP2;ratioP2;P2;SDS_P1;SDS_P2;PMS_P1;PMS_P2;Temp;Humidity;BMP_temperature;BMP_pressure;BME280_temperature;BME280_humidity;BME280_pressure;Samples;Min_cycle;Max_cycle;Signal;HPM_P1;HPM_P2
2023/07/05 00:02:17;;;;;;;15.00;8.60;;;;;;;22.81;58.65;99842.12;109064;1258;71083;-80
2023/07/05 00:04:45;;;;;;;17.20;8.20;;;;;;;22.80;58.55;99844.81;108779;1253;59719;-78
2023/07/05 00:07:12;;;;;;;17.30;8.90;;;;;;;22.79;58.25;99845.13;108973;1252;59116;-79
2023/07/05 00:09:40;;;;;;;12.20;8.50;;;;;;;22.75;57.99;99840.48;108880;1253;72031;-79
2023/07/05 00:12:07;;;;;;;13.40;9.00;;;;;;;22.74;57.92;99842.01;107129;1253;70910;-80
2023/07/05 00:14:35;;;;;;;15.00;9.70;;;;;;;22.71;57.77;99837.15;106304;1255;71265;-81
2023/07/05 00:17:02;;;;;;;12.70;9.00;;;;;;;22.69;57.57;99834.67;106000;1258;59603;-80
2023/07/05 00:19:30;;;;;;;13.60;9.30;;;;;;;22.67;57.60;99836.64;106174;1253;60255;-81
2023/07/05 00:21:57;;;;;;;13.80;8.60;;;;;;;22.65;57.61;99828.31;107160;1253;71789;-78
2023/07/05 00:24:25;;;;;;;15.40;9.60;;;;;;;22.64;57.44;99826.45;108672;1256;68911;-79
2023/07/05 00:26:52;;;;;;;10.30;9.10;;;;;;;22.64;57.46;99835.23;107058;1255;72716;-82
2023/07/05 00:29:20;;;;;;;13.50;9.00;;;;;;;22.64;57.42;99837.57;106690;1260;59221;-80
2023/07/05 00:31:48;;;;;;;17.10;9.50;;;;;;;22.64;57.39;99840.83;106730;1253;59670;-78
2023/07/05 00:34:17;;;;;;;13.70;9.20;;;;;;;22.63;57.38;99839.56;106426;1254;73016;-79
2023/07/05 00:36:44;;;;;;;11.80;8.80;;;;;;;22.65;57.41;99844.02;106059;1253;70487;-76
2023/07/05 00:39:11;;;;;;;13.10;8.90;;;;;;;22.64;57.91;99850.45;105978;1253;71196;-79
2023/07/05 00:41:39;;;;;;;10.90;9.10;;;;;;;22.62;58.05;99854.47;106384;1253;60118;-78
2023/07/05 00:44:06;;;;;;;11.20;9.00;;;;;;;22.57;58.51;99856.56;106176;1253;59598;-79
2023/07/05 00:46:34;;;;;;;13.00;8.60;;;;;;;22.51;58.56;99863.95;106285;1253;71773;-76
2023/07/05 00:49:09;;;;;;;12.80;9.00;;;;;;;22.47;58.90;99868.24;106393;1254;69574;-75
2023/07/05 00:51:43;;;;;;;11.80;8.70;;;;;;;22.44;59.30;99871.94;106457;1260;72707;-78
2023/07/05 00:54:11;;;;;;;12.80;8.80;;;;;;;22.45;59.74;99875.31;108743;1253;58935;-80
2023/07/05 00:56:52;;;;;;;12.30;9.20;;;;;;;22.44;59.96;99880.48;107545;1258;59232;-78
2023/07/05 00:59:20;;;;;;;12.80;8.60;;;;;;;22.41;60.06;99883.29;106015;1258;72233;-76
2023/07/05 01:01:47;;;;;;;13.50;8.70;;;;;;;22.37;60.21;99887.61;106141;1258;68741;-78
2023/07/05 01:04:32;;;;;;;10.10;9.00;;;;;;;22.29;60.00;99889.56;106029;1255;71363;-77
2023/07/05 01:07:00;;;;;;;13.80;9.40;;;;;;;22.19;59.45;99889.19;105741;1253;60380;-74
2023/07/05 01:09:29;;;;;;;11.60;9.90;;;;;;;22.05;58.98;99893.35;105953;1258;60460;-77
2023/07/05 01:12:26;;;;;;;12.70;9.90;;;;;;;21.89;58.98;99895.69;106048;1253;72538;-79
2023/07/05 01:14:58;;;;;;;19.30;11.40;;;;;;;21.72;59.23;99897.27;106283;1253;70341;-79
2023/07/05 01:17:44;;;;;;;15.40;10.50;;;;;;;21.59;59.43;99902.34;106606;1258;71407;-79
2023/07/05 01:20:23;;;;;;;12.20;10.90;;;;;;;21.45;59.56;99908.79;106233;1256;60483;-79
2023/07/05 01:23:29;;;;;;;14.30;11.10;;;;;;;21.34;59.68;99905.33;107039;1253;60514;-76
2023/07/05 01:26:19;;;;;;;14.90;11.30;;;;;;;21.25;59.87;99895.98;107452;1253;73882;-74
2023/07/05 01:29:08;;;;;;;12.70;11.20;;;;;;;21.19;59.90;99891.73;106621;1257;70350;-78
2023/07/05 01:31:37;;;;;;;12.50;10.50;;;;;;;21.13;60.04;99891.70;106911;1256;71721;-75
2023/07/05 01:34:16;;;;;;;13.60;10.80;;;;;;;21.10;60.07;99889.26;106505;1256;60406;-78
2023/07/05 01:36:44;;;;;;;11.50;9.40;;;;;;;21.06;60.11;99883.75;106448;1253;60439;-76
2023/07/05 01:39:11;;;;;;;11.70;10.20;;;;;;;21.04;60.20;99883.71;106686;1256;72607;-79
2023/07/05 01:41:39;;;;;;;31.00;27.70;;;;;;;21.02;60.25;99887.23;106730;1254;70363;-76
2023/07/05 01:44:07;;;;;;;16.00;12.70;;;;;;;21.00;60.40;99884.54;106092;1256;71879;-79
2023/07/05 01:46:53;;;;;;;11.60;9.70;;;;;;;20.99;60.44;99880.78;106339;1255;60432;-78
2023/07/05 01:49:24;;;;;;;11.30;10.00;;;;;;;20.97;60.47;99881.92;106338;1258;60541;-77
2023/07/05 01:51:59;;;;;;;10.90;9.70;;;;;;;20.97;60.48;99883.48;106302;1253;72751;-79
2023/07/05 01:54:40;;;;;;;12.80;9.70;;;;;;;20.96;60.42;99884.22;109064;1253;69310;-77
2023/07/05 01:57:11;;;;;;;12.90;9.90;;;;;;;20.95;60.40;99886.50;107102;1256;71119;-78
2023/07/05 01:59:48;;;;;;;13.60;9.60;;;;;;;20.94;60.52;99882.29;105900;1260;60550;-76
2023/07/05 02:02:15;;;;;;;11.00;9.20;;;;;;;20.94;60.39;99885.85;105821;1260;60582;-76
2023/07/05 02:04:43;;;;;;;10.70;8.80;;;;;;;20.94;60.40;99888.71;105877;1259;73450;-78
2023/07/05 02:07:11;;;;;;;11.50;9.00;;;;;;;20.95;60.15;99884.15;105872;1261;69560;-75
2023/07/05 02:09:38;;;;;;;11.10;9.40;;;;;;;20.97;60.10;99881.45;106041;1255;71694;-78
2023/07/05 02:12:06;;;;;;;10.90;8.10;;;;;;;20.99;60.04;99879.83;105854;1253;60438;-77
2023/07/05 02:14:37;;;;;;;12.60;9.70;;;;;;;21.03;59.95;99877.48;106172;1253;60426;-78
2023/07/05 02:17:05;;;;;;;10.00;9.00;;;;;;;21.08;59.94;99876.94;105965;1253;72574;-77
2023/07/05 02:19:32;;;;;;;9.70;8.50;;;;;;;21.14;59.86;99875.13;105784;1260;68263;-77
2023/07/05 02:22:02;;;;;;;10.20;8.50;;;;;;;21.21;59.57;99876.27;106278;1259;73009;-76
2023/07/05 02:24:30;;;;;;;12.10;8.90;;;;;;;21.27;59.41;99879.08;108652;1253;60865;-79
2023/07/05 02:26:59;;;;;;;11.50;8.70;;;;;;;21.34;59.22;99877.44;107231;1257;60333;-77
2023/07/05 02:29:30;;;;;;;13.00;9.00;;;;;;;21.43;58.99;99875.80;105898;1260;72518;-74
2023/07/05 02:31:58;;;;;;;16.90;9.60;;;;;;;21.50;58.87;99870.61;105911;1254;69439;-79
2023/07/05 02:34:26;;;;;;;11.40;9.10;;;;;;;21.56;59.09;99873.90;106101;1256;71286;-79
2023/07/05 02:36:54;;;;;;;12.30;9.80;;;;;;;21.62;58.89;99874.92;105902;1257;60461;-76
2023/07/05 02:39:21;;;;;;;12.60;9.40;;;;;;;21.65;58.69;99872.79;105696;1257;60622;-75
2023/07/05 02:41:49;;;;;;;9.70;8.70;;;;;;;21.69;58.53;99868.88;105709;1261;73914;-76
2023/07/05 02:44:16;;;;;;;11.10;9.20;;;;;;;21.75;58.48;99865.92;106105;1253;70214;-77
2023/07/05 02:46:44;;;;;;;11.50;9.70;;;;;;;21.81;58.58;99862.85;106208;1256;71362;-78
2023/07/05 02:49:12;;;;;;;12.10;10.10;;;;;;;21.86;58.53;99865.70;106252;1258;60502;-79
2023/07/05 02:51:41;;;;;;;11.70;9.80;;;;;;;21.90;58.41;99868.71;106752;1253;60425;-79
2023/07/05 02:54:08;;;;;;;12.00;9.10;;;;;;;21.95;58.23;99859.88;108858;1253;72577;-79
2023/07/05 02:56:36;;;;;;;11.70;9.20;;;;;;;21.98;58.10;99850.27;106036;1256;70096;-77
2023/07/05 02:59:03;;;;;;;9.70;8.60;;;;;;;22.04;58.16;99848.52;105752;1256;71783;-78
2023/07/05 03:01:31;;;;;;;13.50;9.60;;;;;;;22.08;58.30;99847.20;105630;1255;62300;-77
2023/07/05 03:03:58;;;;;;;10.40;9.30;;;;;;;22.11;58.43;99849.92;105787;1256;60859;-75
2023/07/05 03:06:26;;;;;;;12.10;10.00;;;;;;;22.14;58.38;99847.27;105716;1256;74195;-76
2023/07/05 03:08:53;;;;;;;13.10;9.10;;;;;;;22.16;58.44;99846.34;105752;1256;70649;-79
2023/07/05 03:11:21;;;;;;;13.10;9.30;;;;;;;22.21;58.37;99849.94;105861;1256;71411;-78
2023/07/05 03:13:48;;;;;;;10.10;9.10;;;;;;;22.25;58.10;99849.55;105809;1260;60496;-77
2023/07/05 03:16:16;;;;;;;12.60;9.80;;;;;;;22.27;57.89;99849.02;105863;1259;60512;-78
2023/07/05 03:18:43;;;;;;;11.90;9.20;;;;;;;22.28;57.93;99841.44;105839;1256;73888;-77
2023/07/05 03:21:11;;;;;;;12.90;9.00;;;;;;;22.31;58.13;99839.38;106290;1255;69548;-76
2023/07/05 03:23:38;;;;;;;13.50;9.60;;;;;;;22.34;58.69;99831.58;107363;1254;72682;-76
2023/07/05 03:26:09;;;;;;;12.90;9.30;;;;;;;22.35;58.85;99835.14;106480;1256;60549;-76
2023/07/05 03:28:37;;;;;;;11.70;9.30;;;;;;;22.37;59.03;99840.08;105795;1260;60623;-76
2023/07/05 03:31:13;;;;;;;13.30;10.80;;;;;;;22.38;58.75;99840.48;105943;1256;72873;-76
2023/07/05 03:33:40;;;;;;;12.20;10.60;;;;;;;22.43;57.61;99842.61;106017;1256;69432;-77
2023/07/05 03:36:17;;;;;;;14.40;10.80;;;;;;;22.46;57.24;99839.09;105967;1256;72573;-78
2023/07/05 03:38:44;;;;;;;12.70;10.60;;;;;;;22.51;56.74;99837.67;105692;1259;60380;-78
2023/07/05 03:41:19;;;;;;;13.20;10.80;;;;;;;22.55;56.35;99837.15;105844;1256;60379;-75
2023/07/05 03:43:47;;;;;;;15.50;10.90;;;;;;;22.60;56.32;99841.61;105794;1260;74799;-80
2023/07/05 03:46:15;;;;;;;12.60;10.60;;;;;;;22.66;56.04;99837.83;105637;1255;68904;-77
2023/07/05 03:48:44;;;;;;;13.10;10.80;;;;;;;22.71;55.83;99840.48;105834;1256;72773;-81
2023/07/05 03:51:13;;;;;;;14.40;11.80;;;;;;;22.74;55.58;99842.33;106062;1256;60779;-81
2023/07/05 03:53:41;;;;;;;12.60;10.00;;;;;;;22.76;55.58;99840.21;107674;1256;62071;-81
2023/07/05 03:56:09;;;;;;;12.20;10.50;;;;;;;22.81;55.45;99838.12;108242;1258;73224;-78
2023/07/05 03:58:37;;;;;;;15.00;10.70;;;;;;;22.87;55.30;99836.21;106205;1254;70676;-79
2023/07/05 04:01:08;;;;;;;17.80;11.60;;;;;;;22.93;55.10;99832.73;106352;1255;71207;-79
2023/07/05 04:03:36;;;;;;;14.80;11.30;;;;;;;23.00;54.89;99830.89;106714;1256;60425;-80
2023/07/05 04:06:03;;;;;;;13.80;11.30;;;;;;;23.09;54.97;99835.70;106576;1254;60489;-78
2023/07/05 04:08:31;;;;;;;11.70;10.40;;;;;;;23.15;54.69;99835.26;106050;1260;72698;-81
2023/07/05 04:10:58;;;;;;;12.20;10.90;;;;;;;23.20;54.56;99838.84;106028;1258;70095;-79
2023/07/05 04:13:26;;;;;;;15.40;11.40;;;;;;;23.25;54.69;99842.16;105855;1257;73105;-75
2023/07/05 04:15:57;;;;;;;13.90;10.40;;;;;;;23.27;54.69;99841.34;106081;1256;60921;-80
2023/07/05 04:18:27;;;;;;;16.40;10.90;;;;;;;23.30;54.89;99837.73;106048;1258;60435;-78
2023/07/05 04:20:54;;;;;;;12.60;11.10;;;;;;;23.31;55.19;99833.55;106045;1257;73915;-76
2023/07/05 04:23:23;;;;;;;16.20;11.50;;;;;;;23.33;55.37;99834.80;106459;1256;70417;-77
2023/07/05 04:26:01;;;;;;;14.60;11.70;;;;;;;23.37;56.21;99837.94;108246;1254;71112;-77
2023/07/05 04:28:29;;;;;;;17.40;13.10;;;;;;;23.41;57.01;99838.05;105961;1255;60603;-75
2023/07/05 04:30:56;;;;;;;16.70;12.20;;;;;;;23.43;57.93;99836.84;105834;1258;60324;-74
2023/07/05 04:33:24;;;;;;;14.80;12.30;;;;;;;23.46;58.47;99838.17;105864;1257;72537;-74
2023/07/05 04:35:54;;;;;;;17.50;12.90;;;;;;;23.49;58.66;99841.04;105391;1259;69991;-75
2023/07/05 04:38:21;;;;;;;15.30;12.90;;;;;;;23.53;58.89;99843.75;105415;1258;71274;-76
2023/07/05 04:40:49;;;;;;;17.00;12.80;;;;;;;23.59;58.99;99845.23;105774;1256;60472;-75
2023/07/05 04:43:17;;;;;;;21.10;13.20;;;;;;;23.64;59.30;99844.92;105745;1258;60452;-75
2023/07/05 04:45:57;;;;;;;16.90;12.80;;;;;;;23.68;59.43;99844.86;105740;1254;73053;-74
2023/07/05 04:48:26;;;;;;;14.20;11.60;;;;;;;23.75;59.45;99843.36;105816;1258;69832;-76
2023/07/05 04:50:54;;;;;;;15.60;10.70;;;;;;;23.82;58.87;99844.36;106063;1256;73092;-76
2023/07/05 04:53:23;;;;;;;16.10;11.20;;;;;;;23.89;58.81;99845.04;106259;1260;60409;-77
2023/07/05 04:55:53;;;;;;;12.40;10.90;;;;;;;23.93;57.96;99844.27;108686;1258;60846;-77
2023/07/05 04:58:21;;;;;;;16.20;11.70;;;;;;;23.99;57.80;99849.11;106327;1255;72698;-79
2023/07/05 05:00:51;;;;;;;13.30;11.00;;;;;;;24.01;58.20;99846.04;105873;1256;70903;-74
2023/07/05 05:03:21;;;;;;;15.60;11.40;;;;;;;24.05;58.70;99851.88;105688;1254;71209;-75
2023/07/05 05:05:53;;;;;;;16.40;11.90;;;;;;;24.06;58.98;99845.29;105800;1253;60496;-79
2023/07/05 05:08:21;;;;;;;17.00;12.00;;;;;;;24.09;60.05;99851.49;105866;1258;60568;-78
2023/07/05 05:10:57;;;;;;;14.30;11.50;;;;;;;24.11;60.68;99851.30;105822;1259;73839;-78
2023/07/05 05:13:25;;;;;;;15.50;11.20;;;;;;;24.13;61.10;99854.68;105581;1264;68995;-77
2023/07/05 05:15:54;;;;;;;13.00;10.70;;;;;;;24.14;61.11;99853.89;105898;1259;71390;-78
2023/07/05 05:18:22;;;;;;;13.80;11.60;;;;;;;24.15;61.55;99852.92;105780;1258;60582;-78
2023/07/05 05:20:50;;;;;;;14.00;11.40;;;;;;;24.15;61.43;99848.79;106177;1256;60565;-75
2023/07/05 05:23:17;;;;;;;13.90;11.20;;;;;;;24.19;61.08;99850.52;107356;1259;73952;-76
2023/07/05 05:25:45;;;;;;;14.40;11.10;;;;;;;24.23;60.59;99844.04;108814;1253;68981;-77
2023/07/05 05:28:13;;;;;;;13.60;11.40;;;;;;;24.29;59.73;99840.46;106361;1255;71054;-76
2023/07/05 05:30:43;;;;;;;22.70;13.70;;;;;;;24.34;59.39;99837.75;105877;1257;60433;-79
2023/07/05 05:33:12;;;;;;;18.40;12.10;;;;;;;24.39;58.99;99833.55;106257;1259;60543;-78
2023/07/05 05:35:46;;;;;;;13.70;12.30;;;;;;;24.42;58.74;99829.23;107529;1254;74008;-79
2023/07/05 05:38:13;;;;;;;18.20;13.30;;;;;;;24.44;58.74;99830.73;106369;1258;70858;-80
2023/07/05 05:40:41;;;;;;;19.80;12.80;;;;;;;24.43;58.65;99828.59;106188;1259;72885;-82
2023/07/05 05:43:08;;;;;;;19.20;12.10;;;;;;;24.44;58.68;99824.04;106406;1260;60408;-79
2023/07/05 05:45:36;;;;;;;21.80;12.40;;;;;;;24.42;58.72;99817.08;107323;1254;60490;-79
2023/07/05 05:48:04;;;;;;;16.30;12.80;;;;;;;24.40;58.76;99815.60;107743;1258;72842;-81
2023/07/05 05:50:31;;;;;;;18.40;12.50;;;;;;;24.40;58.45;99815.70;108328;1256;69023;-80
2023/07/05 05:52:59;;;;;;;22.10;11.70;;;;;;;24.40;57.84;99816.58;108306;1254;70897;-80
2023/07/05 05:55:27;;;;;;;18.20;11.60;;;;;;;24.38;57.75;99817.91;108949;1254;59045;-80
2023/07/05 05:57:54;;;;;;;13.60;10.10;;;;;;;24.37;57.79;99814.74;108381;1253;60304;-80
2023/07/05 06:00:22;;;;;;;15.90;11.20;;;;;;;24.38;57.93;99818.34;107558;1254;72617;-78
2023/07/05 06:02:51;;;;;;;16.20;12.10;;;;;;;24.38;58.97;99820.67;107329;1258;70467;-79
2023/07/05 06:05:19;;;;;;;18.60;11.20;;;;;;;24.38;59.32;99822.58;108654;1257;71570;-76
2023/07/05 06:07:47;;;;;;;14.60;11.00;;;;;;;24.42;59.90;99821.80;107941;1256;60480;-79
2023/07/05 06:10:14;;;;;;;15.20;10.40;;;;;;;24.42;60.23;99814.25;106344;1257;60507;-77
2023/07/05 06:12:42;;;;;;;12.20;10.10;;;;;;;24.44;60.10;99818.66;106264;1256;74527;-78
2023/07/05 06:15:10;;;;;;;15.80;10.50;;;;;;;24.46;59.36;99815.90;106384;1259;69232;-79
2023/07/05 06:17:38;;;;;;;18.20;11.20;;;;;;;24.49;58.95;99815.25;107117;1254;72702;-75
2023/07/05 06:20:07;;;;;;;13.00;10.20;;;;;;;24.55;58.84;99814.51;108803;1257;58744;-78
2023/07/05 06:22:41;;;;;;;14.90;10.70;;;;;;;24.65;58.59;99820.84;108639;1263;60098;-81
2023/07/05 06:25:10;;;;;;;17.60;11.60;;;;;;;24.76;57.78;99823.91;109001;1253;73036;-77
2023/07/05 06:27:37;;;;;;;15.50;10.60;;;;;;;24.86;57.47;99822.10;109340;1254;68726;-79
2023/07/05 06:30:06;;;;;;;12.80;10.50;;;;;;;24.97;57.38;99820.48;108904;1257;73255;-76
2023/07/05 06:32:34;;;;;;;16.50;10.30;;;;;;;25.06;57.38;99823.09;108835;1256;59219;-77
2023/07/05 06:35:04;;;;;;;17.00;10.80;;;;;;;25.16;57.23;99821.79;108787;1254;60294;-75
2023/07/05 06:37:31;;;;;;;16.50;11.20;;;;;;;25.25;57.01;99821.98;108736;1254;74797;-76
2023/07/05 06:39:59;;;;;;;15.60;12.00;;;;;;;25.34;57.04;99816.42;108416;1254;69050;-75
2023/07/05 06:42:26;;;;;;;15.30;11.50;;;;;;;25.45;57.05;99819.65;108758;1255;71875;-74
2023/07/05 06:45:01;;;;;;;14.40;10.10;;;;;;;25.55;56.48;99822.52;108925;1254;59392;-77
2023/07/05 06:47:28;;;;;;;11.00;9.30;;;;;;;25.61;55.18;99829.45;108764;1254;59318;-78
2023/07/05 06:49:57;;;;;;;10.20;9.10;;;;;;;25.70;54.70;99833.30;108336;1256;72388;-77
2023/07/05 06:52:24;;;;;;;14.10;10.90;;;;;;;25.80;54.24;99830.45;107733;1257;68897;-78
2023/07/05 06:54:52;;;;;;;11.90;10.10;;;;;;;25.86;54.30;99831.72;107279;1253;72642;-77
2023/07/05 06:57:19;;;;;;;13.90;9.00;;;;;;;25.92;53.84;99829.42;109269;1254;58607;-75
2023/07/05 06:59:47;;;;;;;12.70;10.00;;;;;;;25.97;53.00;99827.59;106853;1254;60534;-76
2023/07/05 07:02:14;;;;;;;18.10;9.60;;;;;;;25.95;52.49;99824.54;106015;1257;74363;-77
2023/07/05 07:04:42;;;;;;;10.90;8.80;;;;;;;25.91;52.11;99825.94;105885;1257;69325;-77
2023/07/05 07:07:11;;;;;;;12.40;9.10;;;;;;;25.93;51.93;99828.34;105930;1252;71211;-74
2023/07/05 07:09:40;;;;;;;11.80;9.20;;;;;;;26.05;52.14;99831.59;105927;1257;62368;-77
2023/07/05 07:12:09;;;;;;;12.20;9.90;;;;;;;26.26;53.20;99831.02;105887;1254;60637;-75
2023/07/05 07:14:36;;;;;;;15.40;10.70;;;;;;;26.41;53.47;99830.17;106039;1258;75928;-76
2023/07/05 07:17:04;;;;;;;11.90;9.30;;;;;;;26.49;53.39;99834.70;106020;1259;69989;-75
2023/07/05 07:19:31;;;;;;;11.50;10.20;;;;;;;26.51;53.47;99840.11;105895;1260;72666;-76
2023/07/05 07:21:59;;;;;;;11.50;9.80;;;;;;;26.52;53.23;99845.55;107178;1254;60883;-78
2023/07/05 07:24:28;;;;;;;14.10;10.20;;;;;;;26.51;52.85;99850.68;107745;1257;60078;-76
2023/07/05 07:26:56;;;;;;;12.00;10.20;;;;;;;26.54;53.03;99852.27;108506;1254;72609;-76
2023/07/05 07:29:24;;;;;;;10.80;9.40;;;;;;;26.60;52.61;99853.31;107607;1257;68708;-76
2023/07/05 07:31:51;;;;;;;13.50;10.10;;;;;;;26.68;51.86;99849.85;106028;1255;72716;-77
2023/07/05 07:34:19;;;;;;;11.20;10.00;;;;;;;26.74;51.71;99850.50;105938;1254;60646;-74
2023/07/05 07:36:47;;;;;;;13.20;10.80;;;;;;;26.80;51.45;99854.30;105935;1255;60584;-75
2023/07/05 07:39:14;;;;;;;13.10;10.80;;;;;;;26.89;51.58;99857.90;105839;1254;73830;-73
2023/07/05 07:41:42;;;;;;;11.60;10.30;;;;;;;26.89;51.57;99859.00;105888;1257;69028;-76
2023/07/05 07:44:10;;;;;;;11.20;10.00;;;;;;;26.89;51.15;99860.85;105844;1258;72082;-75
2023/07/05 07:46:38;;;;;;;11.40;10.00;;;;;;;26.96;51.25;99865.36;105882;1257;60481;-75
2023/07/05 07:49:07;;;;;;;12.30;10.60;;;;;;;27.02;51.15;99869.45;106744;1254;60405;-76
2023/07/05 07:51:36;;;;;;;11.30;9.60;;;;;;;27.10;50.69;99869.60;107281;1254;73890;-78
2023/07/05 07:54:08;;;;;;;10.20;9.20;;;;;;;27.23;50.65;99872.64;107904;1251;70097;-77
2023/07/05 07:56:37;;;;;;;14.20;10.40;;;;;;;27.37;50.01;99876.90;108538;1252;71679;-76
2023/07/05 07:59:07;;;;;;;9.70;8.80;;;;;;;27.41;48.92;99876.73;107542;1253;58772;-79
2023/07/05 08:01:37;;;;;;;13.20;10.10;;;;;;;27.42;49.02;99875.90;107332;1254;60488;-81
2023/07/05 08:04:08;;;;;;;14.00;9.70;;;;;;;27.47;48.69;99878.73;107389;1254;72659;-80
2023/07/05 08:06:38;;;;;;;9.50;8.60;;;;;;;27.52;48.45;99881.98;107538;1256;69596;-79
2023/07/05 08:09:10;;;;;;;10.50;8.00;;;;;;;27.62;48.35;99884.52;107442;1253;71147;-82
2023/07/05 08:11:39;;;;;;;10.30;8.20;;;;;;;27.72;47.84;99886.67;107240;1254;60364;-82
2023/07/05 08:14:10;;;;;;;10.80;8.70;;;;;;;27.82;47.45;99891.66;106934;1261;60760;-80
2023/07/05 08:16:38;;;;;;;10.30;8.70;;;;;;;27.96;47.44;99895.45;106409;1260;73976;-76
2023/07/05 08:19:05;;;;;;;9.00;8.10;;;;;;;28.07;47.07;99895.08;106357;1255;70107;-77
2023/07/05 08:21:33;;;;;;;10.50;9.00;;;;;;;28.15;47.33;99895.30;107175;1258;72683;-75
2023/07/05 08:24:01;;;;;;;9.90;8.40;;;;;;;28.21;47.51;99892.15;107604;1254;61405;-77
2023/07/05 08:26:49;;;;;;;11.10;9.20;;;;;;;28.33;47.30;99893.40;106724;1254;60997;-76
2023/07/05 08:29:17;;;;;;;8.90;8.00;;;;;;;28.37;47.30;99896.38;106271;1254;73841;-77
2023/07/05 08:31:48;;;;;;;11.70;9.30;;;;;;;28.41;47.18;99891.16;106386;1260;70169;-75
2023/07/05 08:34:17;;;;;;;10.90;9.80;;;;;;;28.46;46.97;99892.92;108375;1254;71195;-74
2023/07/05 08:36:46;;;;;;;12.90;8.80;;;;;;;28.52;46.96;99892.75;108076;1255;60363;-74
2023/07/05 08:39:14;;;;;;;10.30;9.00;;;;;;;28.55;46.85;99893.17;106809;1257;60893;-77
2023/07/05 08:41:42;;;;;;;9.90;8.90;;;;;;;28.59;46.77;99897.36;106047;1255;72670;-77
2023/07/05 08:44:21;;;;;;;10.80;8.90;;;;;;;28.63;47.11;99896.73;105998;1257;69090;-78
2023/07/05 08:47:05;;;;;;;10.70;9.30;;;;;;;28.67;47.19;99895.55;106153;1261;74655;-76
2023/07/05 08:49:33;;;;;;;11.10;8.70;;;;;;;28.72;47.33;99894.48;106442;1254;60549;-75
2023/07/05 08:52:00;;;;;;;12.60;9.20;;;;;;;28.74;47.45;99890.63;106966;1258;60107;-77
2023/07/05 08:54:32;;;;;;;11.00;9.90;;;;;;;28.76;47.49;99894.07;107441;1254;73862;-74
2023/07/05 08:57:05;;;;;;;13.90;10.10;;;;;;;28.81;47.15;99898.02;105764;1253;70255;-78
2023/07/05 08:59:40;;;;;;;11.20;8.80;;;;;;;28.77;47.25;99900.18;105935;1256;72676;-77
2023/07/05 09:02:09;;;;;;;14.20;10.30;;;;;;;28.75;47.29;99904.46;105823;1258;60516;-75
2023/07/05 09:04:37;;;;;;;13.70;9.70;;;;;;;28.70;47.32;99904.54;105968;1254;60467;-75
2023/07/05 09:07:05;;;;;;;12.20;9.90;;;;;;;28.66;47.43;99907.46;105936;1254;74002;-76
2023/07/05 09:09:51;;;;;;;11.00;9.70;;;;;;;28.67;47.50;99907.09;105940;1258;70371;-75
2023/07/05 09:15:29;;;;;;;14.00;9.70;;;;;;;28.62;47.25;99909.10;102983;1293;601155;-75
2023/07/05 09:18:09;;;;;;;11.40;10.20;;;;;;;28.54;47.34;99912.74;105251;1271;59223;-75
2023/07/05 09:20:46;;;;;;;13.70;11.00;;;;;;;28.46;47.73;99913.80;105999;1274;59328;-74
2023/07/05 09:23:17;;;;;;;11.00;9.90;;;;;;;28.45;47.97;99914.69;106198;1271;72314;-76
2023/07/05 09:25:47;;;;;;;11.80;10.70;;;;;;;28.45;48.10;99914.91;105162;1267;70203;-76
2023/07/05 09:28:41;;;;;;;12.10;10.00;;;;;;;28.44;48.20;99912.52;105008;1269;183260;-77
2023/07/05 09:31:11;;;;;;;12.60;9.70;;;;;;;28.47;48.20;99910.41;105252;1264;60195;-75
2023/07/05 09:33:45;;;;;;;12.10;10.10;;;;;;;28.49;48.30;99913.57;105783;1256;59114;-75
2023/07/05 09:36:23;;;;;;;13.00;10.10;;;;;;;28.51;48.45;99911.00;105644;1258;72822;-75
2023/07/05 09:38:55;;;;;;;11.30;9.50;;;;;;;28.56;48.12;99912.36;105870;1258;72023;-75
2023/07/05 09:41:37;;;;;;;12.10;10.80;;;;;;;28.58;47.79;99911.30;107165;1262;71969;-76
2023/07/05 09:44:04;;;;;;;10.10;9.00;;;;;;;28.64;47.57;99909.28;107545;1257;59714;-73
2023/07/05 09:46:33;;;;;;;14.50;10.30;;;;;;;28.80;47.35;99899.16;107413;1257;59584;-74
2023/07/05 09:49:01;;;;;;;12.00;10.80;;;;;;;28.98;47.18;99899.41;107904;1257;71910;-76
2023/07/05 09:51:29;;;;;;;11.00;9.80;;;;;;;29.23;47.51;99897.73;106802;1260;68773;-75
2023/07/05 09:54:02;;;;;;;13.00;10.60;;;;;;;29.54;47.03;99899.54;105832;1261;72846;-74
2023/07/05 09:56:30;;;;;;;15.90;11.50;;;;;;;29.70;46.40;99900.17;105807;1260;60313;-76
2023/07/05 09:59:07;;;;;;;13.90;10.80;;;;;;;29.64;46.27;99898.55;105665;1257;61039;-75
2023/07/05 10:01:37;;;;;;;11.70;10.50;;;;;;;29.55;46.20;99898.82;105755;1264;73560;-77
2023/07/05 10:04:05;;;;;;;14.00;10.40;;;;;;;29.52;46.38;99896.50;105793;1258;69196;-75
2023/07/05 10:06:33;;;;;;;13.90;9.80;;;;;;;29.51;46.36;99896.35;105480;1260;72793;-77
2023/07/05 10:09:11;;;;;;;13.10;9.80;;;;;;;29.51;46.47;99895.09;105711;1256;60088;-78
2023/07/05 10:11:45;;;;;;;11.20;10.10;;;;;;;29.53;46.27;99897.75;105709;1262;59620;-77
2023/07/05 10:14:18;;;;;;;11.90;10.70;;;;;;;29.49;46.16;99898.84;105880;1263;73028;-74
2023/07/05 10:16:54;;;;;;;12.20;11.00;;;;;;;29.45;46.27;99893.79;106978;1257;69234;-77
2023/07/05 10:19:24;;;;;;;13.60;10.60;;;;;;;29.39;46.34;99893.41;107789;1260;73586;-78
2023/07/05 10:21:54;;;;;;;13.10;11.10;;;;;;;29.33;46.36;99895.60;105771;1264;59747;-79
2023/07/05 10:24:21;;;;;;;12.10;9.90;;;;;;;29.32;46.57;99898.67;105741;1264;59635;-77
2023/07/05 10:26:59;;;;;;;12.90;10.70;;;;;;;29.37;46.68;99898.30;105546;1258;76701;-75
2023/07/05 10:29:27;;;;;;;13.20;11.30;;;;;;;29.45;46.95;99894.71;105462;1265;70638;-77
2023/07/05 10:31:57;;;;;;;17.40;11.10;;;;;;;29.53;46.89;99899.39;105442;1267;73252;-78
2023/07/05 10:34:25;;;;;;;14.70;10.50;;;;;;;29.63;47.06;99897.58;105501;1258;60248;-78
2023/07/05 10:36:54;;;;;;;14.00;10.80;;;;;;;29.78;46.99;99900.55;105495;1257;59957;-77
2023/07/05 10:39:23;;;;;;;14.00;10.90;;;;;;;29.95;46.72;99901.60;105461;1257;73027;-78
2023/07/05 10:41:55;;;;;;;14.10;11.00;;;;;;;30.10;46.52;99900.92;105563;1257;69222;-77
2023/07/05 10:44:36;;;;;;;13.20;10.30;;;;;;;30.23;46.15;99898.72;106045;1260;74824;-78
2023/07/05 10:47:04;;;;;;;15.10;11.50;;;;;;;30.32;45.76;99898.23;106225;1263;59621;-76
2023/07/05 10:49:34;;;;;;;14.50;11.10;;;;;;;30.34;45.80;99897.04;105849;1257;62212;-75
2023/07/05 10:52:06;;;;;;;16.30;11.20;;;;;;;30.34;45.98;99897.11;107672;1258;73078;-76
2023/07/05 10:55:00;;;;;;;14.50;11.10;;;;;;;30.38;46.14;99895.69;108137;1262;68732;-75
2023/07/05 10:57:38;;;;;;;16.60;10.50;;;;;;;30.50;46.07;99896.81;107016;1257;71862;-78
2023/07/05 11:00:11;;;;;;;13.70;10.70;;;;;;;30.65;46.00;99895.00;106207;1257;59570;-80
2023/07/05 11:03:04;;;;;;;13.00;11.60;;;;;;;30.80;45.65;99894.10;106355;1253;59820;-78
2023/07/05 11:05:44;;;;;;;12.70;10.60;;;;;;;30.99;45.81;99893.48;106322;1252;72248;-77
2023/07/05 11:08:38;;;;;;;14.20;11.80;;;;;;;31.32;45.73;99885.00;106147;1254;70281;-78
2023/07/05 11:11:21;;;;;;;15.60;11.30;;;;;;;31.97;45.36;99885.86;105950;1259;71380;-76
2023/07/05 11:14:06;;;;;;;14.60;11.50;;;;;;;32.74;44.29;99880.83;107302;1257;59683;-77
2023/07/05 11:16:34;;;;;;;13.00;10.70;;;;;;;33.37;43.15;99874.06;108811;1253;58997;-76
2023/07/05 11:19:05;;;;;;;15.50;12.50;;;;;;;33.92;42.54;99871.36;108074;1254;71867;-77
2023/07/05 11:21:40;;;;;;;12.50;11.20;;;;;;;34.56;41.82;99867.38;106338;1259;71787;-78
2023/07/05 11:24:09;;;;;;;14.30;10.50;;;;;;;35.22;40.80;99865.94;105911;1254;63716;-76
2023/07/05 11:26:41;;;;;;;13.60;10.70;;;;;;;35.70;40.12;99863.02;106059;1254;59657;-76
2023/07/05 11:29:24;;;;;;;13.70;11.10;;;;;;;35.96;39.67;99865.61;105994;1253;59760;-76
2023/07/05 11:31:52;;;;;;;13.80;11.50;;;;;;;36.21;39.09;99872.06;105968;1254;64225;-78